sensor_id;sensor_type;location;lat;lon;timestamp;temperature;humidity
7000;DHT22;3540;53.242;10.408;2023-11-21T00:00:13;8.70;99.90
7000;DHT22;3540;53.242;10.408;2023-11-21T00:02:39;8.70;99.90
7000;DHT22;3540;53.242;10.408;2023-11-21T00:05:10;8.70;99.90
7000;DHT22;3540;53.242;10.408;2023-11-21T00:07:37;8.60;99.90
7000;DHT22;3540;53.242;10.408;2023-11-21T00:10:03;8.60;99.90
7000;DHT22;3540;53.242;10.408;2023-11-21T00:12:33;8.60;99.90
7000;DHT22;3540;53.242;10.408;2023-11-21T00:14:59;8.60;99.90
7000;DHT22;3540;53.242;10.408;2023-11-21T00:17:25;8.60;99.90
7000;DHT22;3540;53.242;10.408;2023-11-21T00:19:51;8.60;99.90
7000;DHT22;3540;53.242;10.408;2023-11-21T00:22:19;8.60;99.90
7000;DHT22;3540;53.242;10.408;2023-11-21T00:24:46;8.50;99.90
7000;DHT22;3540;53.242;10.408;2023-11-21T00:27:12;8.40;99.90
7000;DHT22;3540;53.242;10.408;2023-11-21T00:29:37;8.30;99.90
7000;DHT22;3540;53.242;10.408;2023-11-21T00:32:05;8.20;99.90
7000;DHT22;3540;53.242;10.408;2023-11-21T00:34:31;8.10;99.90
7000;DHT22;3540;53.242;10.408;2023-11-21T00:36:56;8.10;99.90
7000;DHT22;3540;53.242;10.408;2023-11-21T00:39:22;8.00;99.90
7000;DHT22;3540;53.242;10.408;2023-11-21T00:41:48;8.00;99.90
7000;DHT22;3540;53.242;10.408;2023-11-21T00:44:13;7.90;99.90
7000;DHT22;3540;53.242;10.408;2023-11-21T00:46:39;7.80;99.90
7000;DHT22;3540;53.242;10.408;2023-11-21T00:49:05;7.80;99.90
7000;DHT22;3540;53.242;10.408;2023-11-21T00:51:31;7.80;99.90
7000;DHT22;3540;53.242;10.408;2023-11-21T00:53:57;7.80;99.90
7000;DHT22;3540;53.242;10.408;2023-11-21T00:56:22;7.80;99.90
7000;DHT22;3540;53.242;10.408;2023-11-21T00:58:48;7.80;99.90
7000;DHT22;3540;53.242;10.408;2023-11-21T01:01:20;7.80;99.90
7000;DHT22;3540;53.242;10.408;2023-11-21T01:03:47;7.80;99.90
7000;DHT22;3540;53.242;10.408;2023-11-21T01:06:13;7.80;99.90
7000;DHT22;3540;53.242;10.408;2023-11-21T01:08:38;7.80;99.90
7000;DHT22;3540;53.242;10.408;2023-11-21T01:11:04;7.80;99.90
7000;DHT22;3540;53.242;10.408;2023-11-21T01:13:33;7.70;99.90
7000;DHT22;3540;53.242;10.408;2023-11-21T01:15:58;7.70;99.90
7000;DHT22;3540;53.242;10.408;2023-11-21T01:18:24;7.70;99.90
7000;DHT22;3540;53.242;10.408;2023-11-21T01:20:51;7.60;99.90
7000;DHT22;3540;53.242;10.408;2023-11-21T01:23:18;7.60;99.90
7000;DHT22;3540;53.242;10.408;2023-11-21T01:25:44;7.50;99.90
7000;DHT22;3540;53.242;10.408;2023-11-21T01:28:09;7.50;99.90
7000;DHT22;3540;53.242;10.408;2023-11-21T01:30:35;7.40;99.90
7000;DHT22;3540;53.242;10.408;2023-11-21T01:33:01;7.40;99.90
7000;DHT22;3540;53.242;10.408;2023-11-21T01:35:26;7.40;99.90
7000;DHT22;3540;53.242;10.408;2023-11-21T01:37:52;7.30;99.90
7000;DHT22;3540;53.242;10.408;2023-11-21T01:40:17;7.30;99.90
7000;DHT22;3540;53.242;10.408;2023-11-21T01:42:44;7.30;99.90
7000;DHT22;3540;53.242;10.408;2023-11-21T01:45:10;7.30;99.90
7000;DHT22;3540;53.242;10.408;2023-11-21T01:47:38;7.30;99.90
7000;DHT22;3540;53.242;10.408;2023-11-21T01:50:04;7.30;99.90
7000;DHT22;3540;53.242;10.408;2023-11-21T01:52:32;7.20;99.90
7000;DHT22;3540;53.242;10.408;2023-11-21T01:54:59;7.20;99.90
7000;DHT22;3540;53.242;10.408;2023-11-21T01:57:25;7.10;99.90
7000;DHT22;3540;53.242;10.408;2023-11-21T01:59:54;7.10;99.90
7000;DHT22;3540;53.242;10.408;2023-11-21T02:02:20;7.00;99.90
7000;DHT22;3540;53.242;10.408;2023-11-21T02:04:45;6.90;99.90
7000;DHT22;3540;53.242;10.408;2023-11-21T02:07:11;6.80;99.90
7000;DHT22;3540;53.242;10.408;2023-11-21T02:09:37;6.80;99.90
7000;DHT22;3540;53.242;10.408;2023-11-21T02:12:04;6.80;99.90
7000;DHT22;3540;53.242;10.408;2023-11-21T02:14:30;6.70;99.90
7000;DHT22;3540;53.242;10.408;2023-11-21T02:16:56;6.70;99.90
7000;DHT22;3540;53.242;10.408;2023-11-21T02:19:23;6.70;99.90
7000;DHT22;3540;53.242;10.408;2023-11-21T02:21:51;6.70;99.90
7000;DHT22;3540;53.242;10.408;2023-11-21T02:24:26;6.70;99.90
7000;DHT22;3540;53.242;10.408;2023-11-21T02:26:52;6.60;99.90
7000;DHT22;3540;53.242;10.408;2023-11-21T02:29:19;6.50;99.90
7000;DHT22;3540;53.242;10.408;2023-11-21T02:31:48;6.50;99.90
7000;DHT22;3540;53.242;10.408;2023-11-21T02:34:15;6.60;99.90
7000;DHT22;3540;53.242;10.408;2023-11-21T02:36:41;6.60;99.90
7000;DHT22;3540;53.242;10.408;2023-11-21T02:39:08;6.50;99.90
7000;DHT22;3540;53.242;10.408;2023-11-21T02:41:33;6.50;99.90
7000;DHT22;3540;53.242;10.408;2023-11-21T02:44:00;6.50;99.90
7000;DHT22;3540;53.242;10.408;2023-11-21T02:46:26;6.50;99.90
7000;DHT22;3540;53.242;10.408;2023-11-21T02:48:52;6.50;99.90
7000;DHT22;3540;53.242;10.408;2023-11-21T02:51:19;6.50;99.90
7000;DHT22;3540;53.242;10.408;2023-11-21T02:53:45;6.50;99.90
7000;DHT22;3540;53.242;10.408;2023-11-21T02:56:12;6.50;99.90
7000;DHT22;3540;53.242;10.408;2023-11-21T02:58:41;6.40;99.90
7000;DHT22;3540;53.242;10.408;2023-11-21T03:01:06;6.40;99.90
7000;DHT22;3540;53.242;10.408;2023-11-21T03:03:33;6.40;99.90
7000;DHT22;3540;53.242;10.408;2023-11-21T03:05:59;6.40;99.90
7000;DHT22;3540;53.242;10.408;2023-11-21T03:08:24;6.40;99.90
7000;DHT22;3540;53.242;10.408;2023-11-21T03:10:50;6.30;99.90
7000;DHT22;3540;53.242;10.408;2023-11-21T03:13:15;6.40;99.90
7000;DHT22;3540;53.242;10.408;2023-11-21T03:15:41;6.40;99.90
7000;DHT22;3540;53.242;10.408;2023-11-21T03:18:08;6.40;99.90
7000;DHT22;3540;53.242;10.408;2023-11-21T03:20:34;6.30;99.90
7000;DHT22;3540;53.242;10.408;2023-11-21T03:23:00;6.30;99.90
7000;DHT22;3540;53.242;10.408;2023-11-21T03:25:26;6.30;99.90
7000;DHT22;3540;53.242;10.408;2023-11-21T03:27:52;6.30;99.90
7000;DHT22;3540;53.242;10.408;2023-11-21T03:30:18;6.30;99.90
7000;DHT22;3540;53.242;10.408;2023-11-21T03:32:44;6.30;99.90
7000;DHT22;3540;53.242;10.408;2023-11-21T03:35:10;6.30;99.90
7000;DHT22;3540;53.242;10.408;2023-11-21T03:37:36;6.30;99.90
7000;DHT22;3540;53.242;10.408;2023-11-21T03:40:03;6.30;99.90
7000;DHT22;3540;53.242;10.408;2023-11-21T03:42:29;6.20;99.90
7000;DHT22;3540;53.242;10.408;2023-11-21T03:44:55;6.30;99.90
7000;DHT22;3540;53.242;10.408;2023-11-21T03:47:21;6.20;99.90
7000;DHT22;3540;53.242;10.408;2023-11-21T03:49:47;6.20;99.90
7000;DHT22;3540;53.242;10.408;2023-11-21T03:52:12;6.20;99.90
7000;DHT22;3540;53.242;10.408;2023-11-21T03:54:38;6.20;99.90
7000;DHT22;3540;53.242;10.408;2023-11-21T03:57:04;6.20;99.90
7000;DHT22;3540;53.242;10.408;2023-11-21T03:59:29;6.20;99.90
7000;DHT22;3540;53.242;10.408;2023-11-21T04:01:56;6.10;99.90
7000;DHT22;3540;53.242;10.408;2023-11-21T04:04:22;6.10;99.90
7000;DHT22;3540;53.242;10.408;2023-11-21T04:06:48;6.10;99.90
7000;DHT22;3540;53.242;10.408;2023-11-21T04:09:14;6.10;99.90
7000;DHT22;3540;53.242;10.408;2023-11-21T04:11:39;6.10;99.90
7000;DHT22;3540;53.242;10.408;2023-11-21T04:14:05;6.10;99.90
7000;DHT22;3540;53.242;10.408;2023-11-21T04:16:30;6.10;99.90
7000;DHT22;3540;53.242;10.408;2023-11-21T04:18:56;6.10;99.90
7000;DHT22;3540;53.242;10.408;2023-11-21T04:21:22;6.10;99.90
7000;DHT22;3540;53.242;10.408;2023-11-21T04:23:49;6.10;99.90
7000;DHT22;3540;53.242;10.408;2023-11-21T04:26:14;6.10;99.90
7000;DHT22;3540;53.242;10.408;2023-11-21T04:28:40;6.00;99.90
7000;DHT22;3540;53.242;10.408;2023-11-21T04:31:06;6.10;99.90
7000;DHT22;3540;53.242;10.408;2023-11-21T04:33:32;6.10;99.90
7000;DHT22;3540;53.242;10.408;2023-11-21T04:35:58;6.10;99.90
7000;DHT22;3540;53.242;10.408;2023-11-21T04:38:24;6.10;99.90
7000;DHT22;3540;53.242;10.408;2023-11-21T04:40:49;6.10;99.90
7000;DHT22;3540;53.242;10.408;2023-11-21T04:43:15;6.00;99.90
7000;DHT22;3540;53.242;10.408;2023-11-21T04:45:40;6.10;99.90
7000;DHT22;3540;53.242;10.408;2023-11-21T04:48:07;6.10;99.90
7000;DHT22;3540;53.242;10.408;2023-11-21T04:50:34;6.10;99.90
7000;DHT22;3540;53.242;10.408;2023-11-21T04:52:59;6.10;99.90
7000;DHT22;3540;53.242;10.408;2023-11-21T04:55:25;6.10;99.90
7000;DHT22;3540;53.242;10.408;2023-11-21T04:57:54;6.00;99.90
7000;DHT22;3540;53.242;10.408;2023-11-21T05:00:19;6.10;99.90
7000;DHT22;3540;53.242;10.408;2023-11-21T05:02:46;6.00;99.90
7000;DHT22;3540;53.242;10.408;2023-11-21T05:05:12;6.00;99.90
7000;DHT22;3540;53.242;10.408;2023-11-21T05:07:39;6.00;99.90
7000;DHT22;3540;53.242;10.408;2023-11-21T05:10:06;6.00;99.90
7000;DHT22;3540;53.242;10.408;2023-11-21T05:12:34;6.00;99.90
7000;DHT22;3540;53.242;10.408;2023-11-21T05:15:04;6.00;99.90
7000;DHT22;3540;53.242;10.408;2023-11-21T05:17:33;6.00;99.90
7000;DHT22;3540;53.242;10.408;2023-11-21T05:20:00;5.90;99.90
7000;DHT22;3540;53.242;10.408;2023-11-21T05:22:29;5.90;99.90
7000;DHT22;3540;53.242;10.408;2023-11-21T05:24:55;5.90;99.90
7000;DHT22;3540;53.242;10.408;2023-11-21T05:27:20;5.90;99.90
7000;DHT22;3540;53.242;10.408;2023-11-21T05:29:46;5.90;99.90
7000;DHT22;3540;53.242;10.408;2023-11-21T05:32:12;5.90;99.90
7000;DHT22;3540;53.242;10.408;2023-11-21T05:34:37;5.90;99.90
7000;DHT22;3540;53.242;10.408;2023-11-21T05:37:03;5.90;99.90
7000;DHT22;3540;53.242;10.408;2023-11-21T05:39:31;5.90;99.90
7000;DHT22;3540;53.242;10.408;2023-11-21T05:41:57;5.80;99.90
7000;DHT22;3540;53.242;10.408;2023-11-21T05:44:23;5.80;99.90
7000;DHT22;3540;53.242;10.408;2023-11-21T05:46:49;5.80;99.90
7000;DHT22;3540;53.242;10.408;2023-11-21T05:49:15;5.80;99.90
7000;DHT22;3540;53.242;10.408;2023-11-21T05:51:41;5.80;99.90
7000;DHT22;3540;53.242;10.408;2023-11-21T05:54:07;5.80;99.90
7000;DHT22;3540;53.242;10.408;2023-11-21T05:56:33;5.80;99.90
7000;DHT22;3540;53.242;10.408;2023-11-21T05:58:59;5.80;99.90
7000;DHT22;3540;53.242;10.408;2023-11-21T06:01:25;5.80;99.90
7000;DHT22;3540;53.242;10.408;2023-11-21T06:03:54;5.80;99.90
7000;DHT22;3540;53.242;10.408;2023-11-21T06:06:20;5.80;99.90
7000;DHT22;3540;53.242;10.408;2023-11-21T06:08:48;5.70;99.90
7000;DHT22;3540;53.242;10.408;2023-11-21T06:11:14;5.70;99.90
7000;DHT22;3540;53.242;10.408;2023-11-21T06:13:40;5.70;99.90
7000;DHT22;3540;53.242;10.408;2023-11-21T06:16:06;5.80;99.90
7000;DHT22;3540;53.242;10.408;2023-11-21T06:18:31;5.70;99.90
7000;DHT22;3540;53.242;10.408;2023-11-21T06:20:57;5.70;99.90
7000;DHT22;3540;53.242;10.408;2023-11-21T06:23:24;5.70;99.90
7000;DHT22;3540;53.242;10.408;2023-11-21T06:25:49;5.70;99.90
7000;DHT22;3540;53.242;10.408;2023-11-21T06:28:15;5.70;99.90
7000;DHT22;3540;53.242;10.408;2023-11-21T06:30:43;5.70;99.90
7000;DHT22;3540;53.242;10.408;2023-11-21T06:33:09;5.70;99.90
7000;DHT22;3540;53.242;10.408;2023-11-21T06:35:35;5.70;99.90
7000;DHT22;3540;53.242;10.408;2023-11-21T06:38:01;5.70;99.90
7000;DHT22;3540;53.242;10.408;2023-11-21T06:40:28;5.80;99.90
7000;DHT22;3540;53.242;10.408;2023-11-21T06:42:53;5.80;99.90
7000;DHT22;3540;53.242;10.408;2023-11-21T06:45:19;5.70;99.90
7000;DHT22;3540;53.242;10.408;2023-11-21T06:47:45;5.70;99.90
7000;DHT22;3540;53.242;10.408;2023-11-21T06:50:11;5.70;99.90
7000;DHT22;3540;53.242;10.408;2023-11-21T06:52:37;5.80;99.90
7000;DHT22;3540;53.242;10.408;2023-11-21T06:55:04;5.80;99.90
7000;DHT22;3540;53.242;10.408;2023-11-21T06:57:30;5.80;99.90
7000;DHT22;3540;53.242;10.408;2023-11-21T06:59:56;5.80;99.90
7000;DHT22;3540;53.242;10.408;2023-11-21T07:02:22;5.80;99.90
7000;DHT22;3540;53.242;10.408;2023-11-21T07:04:48;5.80;99.90
7000;DHT22;3540;53.242;10.408;2023-11-21T07:07:14;5.80;99.90
7000;DHT22;3540;53.242;10.408;2023-11-21T07:09:39;5.80;99.90
7000;DHT22;3540;53.242;10.408;2023-11-21T07:12:05;5.80;99.90
7000;DHT22;3540;53.242;10.408;2023-11-21T07:14:35;5.80;99.90
7000;DHT22;3540;53.242;10.408;2023-11-21T07:17:02;5.80;99.90
7000;DHT22;3540;53.242;10.408;2023-11-21T07:19:28;5.80;99.90
7000;DHT22;3540;53.242;10.408;2023-11-21T07:21:54;5.80;99.90
7000;DHT22;3540;53.242;10.408;2023-11-21T07:24:21;5.80;99.90
7000;DHT22;3540;53.242;10.408;2023-11-21T07:26:48;5.80;99.90
7000;DHT22;3540;53.242;10.408;2023-11-21T07:29:14;5.80;99.90
7000;DHT22;3540;53.242;10.408;2023-11-21T07:31:39;5.80;99.90
7000;DHT22;3540;53.242;10.408;2023-11-21T07:34:06;5.80;99.90
7000;DHT22;3540;53.242;10.408;2023-11-21T07:36:33;5.80;99.90
7000;DHT22;3540;53.242;10.408;2023-11-21T07:38:59;5.80;99.90
7000;DHT22;3540;53.242;10.408;2023-11-21T07:41:25;5.80;99.90
7000;DHT22;3540;53.242;10.408;2023-11-21T07:43:51;5.80;99.90
7000;DHT22;3540;53.242;10.408;2023-11-21T07:46:17;5.80;99.90
7000;DHT22;3540;53.242;10.408;2023-11-21T07:48:43;5.80;99.90
7000;DHT22;3540;53.242;10.408;2023-11-21T07:51:10;5.80;99.90
7000;DHT22;3540;53.242;10.408;2023-11-21T07:53:36;5.80;99.90
7000;DHT22;3540;53.242;10.408;2023-11-21T07:56:06;5.80;99.90
7000;DHT22;3540;53.242;10.408;2023-11-21T07:58:33;5.80;99.90
7000;DHT22;3540;53.242;10.408;2023-11-21T08:00:59;5.80;99.90
7000;DHT22;3540;53.242;10.408;2023-11-21T08:03:25;5.80;99.90
7000;DHT22;3540;53.242;10.408;2023-11-21T08:05:56;5.80;99.90
7000;DHT22;3540;53.242;10.408;2023-11-21T08:08:22;5.80;99.90
7000;DHT22;3540;53.242;10.408;2023-11-21T08:10:47;5.80;99.90
7000;DHT22;3540;53.242;10.408;2023-11-21T08:13:33;5.90;99.90
7000;DHT22;3540;53.242;10.408;2023-11-21T08:15:59;5.90;99.90
7000;DHT22;3540;53.242;10.408;2023-11-21T08:18:28;5.90;99.90
7000;DHT22;3540;53.242;10.408;2023-11-21T08:20:55;5.90;99.90
7000;DHT22;3540;53.242;10.408;2023-11-21T08:23:21;5.90;99.90
7000;DHT22;3540;53.242;10.408;2023-11-21T08:25:51;5.90;99.90
7000;DHT22;3540;53.242;10.408;2023-11-21T08:28:17;5.90;99.90
7000;DHT22;3540;53.242;10.408;2023-11-21T08:30:42;5.90;99.90
7000;DHT22;3540;53.242;10.408;2023-11-21T08:33:08;6.00;99.90
7000;DHT22;3540;53.242;10.408;2023-11-21T08:35:34;6.00;99.90
7000;DHT22;3540;53.242;10.408;2023-11-21T08:38:01;6.10;99.90
7000;DHT22;3540;53.242;10.408;2023-11-21T08:40:27;6.10;99.90
7000;DHT22;3540;53.242;10.408;2023-11-21T08:42:53;6.10;99.90
7000;DHT22;3540;53.242;10.408;2023-11-21T08:45:21;6.00;99.90
7000;DHT22;3540;53.242;10.408;2023-11-21T08:47:48;6.00;99.90
7000;DHT22;3540;53.242;10.408;2023-11-21T08:50:14;6.10;99.90
7000;DHT22;3540;53.242;10.408;2023-11-21T08:52:40;6.00;99.90
7000;DHT22;3540;53.242;10.408;2023-11-21T08:55:07;6.00;99.90
7000;DHT22;3540;53.242;10.408;2023-11-21T08:57:36;6.10;99.90
7000;DHT22;3540;53.242;10.408;2023-11-21T09:00:06;6.20;99.90
7000;DHT22;3540;53.242;10.408;2023-11-21T09:02:42;6.30;99.90
7000;DHT22;3540;53.242;10.408;2023-11-21T09:05:09;6.20;99.90
7000;DHT22;3540;53.242;10.408;2023-11-21T09:07:36;6.20;99.90
7000;DHT22;3540;53.242;10.408;2023-11-21T09:10:03;6.30;99.90
7000;DHT22;3540;53.242;10.408;2023-11-21T09:12:28;6.20;99.90
7000;DHT22;3540;53.242;10.408;2023-11-21T09:14:54;6.20;99.90
7000;DHT22;3540;53.242;10.408;2023-11-21T09:17:20;6.30;99.90
7000;DHT22;3540;53.242;10.408;2023-11-21T09:19:45;6.30;99.90
7000;DHT22;3540;53.242;10.408;2023-11-21T09:22:16;6.30;99.90
7000;DHT22;3540;53.242;10.408;2023-11-21T09:24:41;6.30;99.90
7000;DHT22;3540;53.242;10.408;2023-11-21T09:27:08;6.40;99.90
7000;DHT22;3540;53.242;10.408;2023-11-21T09:29:35;6.50;99.90
7000;DHT22;3540;53.242;10.408;2023-11-21T09:32:00;6.50;99.90
7000;DHT22;3540;53.242;10.408;2023-11-21T09:34:27;6.40;99.90
7000;DHT22;3540;53.242;10.408;2023-11-21T09:36:52;6.50;99.90
7000;DHT22;3540;53.242;10.408;2023-11-21T09:39:19;6.50;99.90
7000;DHT22;3540;53.242;10.408;2023-11-21T09:41:51;6.40;99.90
7000;DHT22;3540;53.242;10.408;2023-11-21T09:47:06;6.50;99.90
7000;DHT22;3540;53.242;10.408;2023-11-21T09:49:36;6.50;99.90
7000;DHT22;3540;53.242;10.408;2023-11-21T09:52:03;6.50;99.90
7000;DHT22;3540;53.242;10.408;2023-11-21T09:54:30;6.50;99.90
7000;DHT22;3540;53.242;10.408;2023-11-21T09:56:59;6.60;99.90
7000;DHT22;3540;53.242;10.408;2023-11-21T09:59:25;6.60;99.90
7000;DHT22;3540;53.242;10.408;2023-11-21T10:01:54;6.70;99.90
7000;DHT22;3540;53.242;10.408;2023-11-21T10:04:20;6.60;99.90
7000;DHT22;3540;53.242;10.408;2023-11-21T10:06:46;6.70;99.90
7000;DHT22;3540;53.242;10.408;2023-11-21T10:09:14;6.60;99.90
7000;DHT22;3540;53.242;10.408;2023-11-21T10:11:41;6.60;99.90
7000;DHT22;3540;53.242;10.408;2023-11-21T10:14:11;6.50;99.90
7000;DHT22;3540;53.242;10.408;2023-11-21T10:16:41;6.50;99.90
7000;DHT22;3540;53.242;10.408;2023-11-21T10:19:10;6.60;99.90
7000;DHT22;3540;53.242;10.408;2023-11-21T10:21:38;6.60;99.90
7000;DHT22;3540;53.242;10.408;2023-11-21T10:24:04;6.60;99.90
7000;DHT22;3540;53.242;10.408;2023-11-21T10:26:32;6.60;99.90
7000;DHT22;3540;53.242;10.408;2023-11-21T10:28:58;6.60;99.90
7000;DHT22;3540;53.242;10.408;2023-11-21T10:31:27;6.70;99.90
7000;DHT22;3540;53.242;10.408;2023-11-21T10:33:53;6.60;99.90
7000;DHT22;3540;53.242;10.408;2023-11-21T10:36:26;6.60;99.90
7000;DHT22;3540;53.242;10.408;2023-11-21T10:38:53;6.70;99.90
7000;DHT22;3540;53.242;10.408;2023-11-21T10:41:19;6.70;99.90
7000;DHT22;3540;53.242;10.408;2023-11-21T10:43:45;6.80;99.90
7000;DHT22;3540;53.242;10.408;2023-11-21T10:46:10;6.70;99.90
7000;DHT22;3540;53.242;10.408;2023-11-21T10:48:36;6.80;99.90
7000;DHT22;3540;53.242;10.408;2023-11-21T10:51:12;6.80;99.90
7000;DHT22;3540;53.242;10.408;2023-11-21T10:53:40;6.90;99.90
7000;DHT22;3540;53.242;10.408;2023-11-21T10:56:08;6.90;99.90
7000;DHT22;3540;53.242;10.408;2023-11-21T10:58:37;7.00;99.90
7000;DHT22;3540;53.242;10.408;2023-11-21T11:01:06;7.00;99.90
7000;DHT22;3540;53.242;10.408;2023-11-21T11:03:32;7.10;99.90
7000;DHT22;3540;53.242;10.408;2023-11-21T11:06:02;6.90;99.90
7000;DHT22;3540;53.242;10.408;2023-11-21T11:08:28;6.90;99.90
7000;DHT22;3540;53.242;10.408;2023-11-21T11:10:55;6.80;99.90
7000;DHT22;3540;53.242;10.408;2023-11-21T11:13:20;6.70;99.90
7000;DHT22;3540;53.242;10.408;2023-11-21T11:15:50;6.70;99.90
7000;DHT22;3540;53.242;10.408;2023-11-21T11:18:16;6.70;99.90
7000;DHT22;3540;53.242;10.408;2023-11-21T11:20:43;6.70;99.90
7000;DHT22;3540;53.242;10.408;2023-11-21T11:24:32;6.60;99.90
7000;DHT22;3540;53.242;10.408;2023-11-21T11:26:36;6.80;99.90
7000;DHT22;3540;53.242;10.408;2023-11-21T11:29:23;6.90;99.90
7000;DHT22;3540;53.242;10.408;2023-11-21T11:32:21;7.00;99.90
7000;DHT22;3540;53.242;10.408;2023-11-21T11:34:57;7.10;99.90
7000;DHT22;3540;53.242;10.408;2023-11-21T11:37:25;7.20;99.90
7000;DHT22;3540;53.242;10.408;2023-11-21T11:39:51;7.40;99.90
7000;DHT22;3540;53.242;10.408;2023-11-21T11:42:17;7.40;99.90
7000;DHT22;3540;53.242;10.408;2023-11-21T11:47:23;7.20;99.90
7000;DHT22;3540;53.242;10.408;2023-11-21T11:50:11;7.00;99.90
7000;DHT22;3540;53.242;10.408;2023-11-21T11:52:49;7.00;99.90
7000;DHT22;3540;53.242;10.408;2023-11-21T11:55:21;7.00;99.90
7000;DHT22;3540;53.242;10.408;2023-11-21T11:57:57;6.90;99.90
7000;DHT22;3540;53.242;10.408;2023-11-21T12:02:54;6.70;99.90
7000;DHT22;3540;53.242;10.408;2023-11-21T12:05:23;6.70;99.90
7000;DHT22;3540;53.242;10.408;2023-11-21T12:07:52;6.70;99.90
7000;DHT22;3540;53.242;10.408;2023-11-21T12:10:20;6.80;99.90
7000;DHT22;3540;53.242;10.408;2023-11-21T12:12:48;6.80;99.90
7000;DHT22;3540;53.242;10.408;2023-11-21T12:15:14;6.60;99.90
7000;DHT22;3540;53.242;10.408;2023-11-21T12:17:44;6.60;99.90
7000;DHT22;3540;53.242;10.408;2023-11-21T12:20:12;6.70;99.90
7000;DHT22;3540;53.242;10.408;2023-11-21T12:22:51;6.60;99.90
7000;DHT22;3540;53.242;10.408;2023-11-21T12:25:18;6.70;99.90
7000;DHT22;3540;53.242;10.408;2023-11-21T12:27:48;6.60;99.90
7000;DHT22;3540;53.242;10.408;2023-11-21T12:30:19;6.60;99.90
7000;DHT22;3540;53.242;10.408;2023-11-21T12:32:51;6.60;99.90
7000;DHT22;3540;53.242;10.408;2023-11-21T12:35:18;6.70;99.90
7000;DHT22;3540;53.242;10.408;2023-11-21T12:37:48;6.60;99.90
7000;DHT22;3540;53.242;10.408;2023-11-21T12:40:14;6.60;99.90
7000;DHT22;3540;53.242;10.408;2023-11-21T12:42:53;6.60;99.90
7000;DHT22;3540;53.242;10.408;2023-11-21T12:45:21;6.60;99.90
7000;DHT22;3540;53.242;10.408;2023-11-21T12:47:48;6.60;99.90
7000;DHT22;3540;53.242;10.408;2023-11-21T12:50:18;6.60;99.90
7000;DHT22;3540;53.242;10.408;2023-11-21T12:52:47;6.60;99.90
7000;DHT22;3540;53.242;10.408;2023-11-21T12:55:17;6.50;99.90
7000;DHT22;3540;53.242;10.408;2023-11-21T12:57:48;6.60;99.90
7000;DHT22;3540;53.242;10.408;2023-11-21T13:00:17;6.60;99.90
7000;DHT22;3540;53.242;10.408;2023-11-21T13:02:53;6.60;99.90
7000;DHT22;3540;53.242;10.408;2023-11-21T13:05:26;6.60;99.90
7000;DHT22;3540;53.242;10.408;2023-11-21T13:07:53;6.50;99.90
7000;DHT22;3540;53.242;10.408;2023-11-21T13:10:22;6.50;99.90
7000;DHT22;3540;53.242;10.408;2023-11-21T13:12:52;6.50;99.90
7000;DHT22;3540;53.242;10.408;2023-11-21T13:15:17;6.60;99.90
7000;DHT22;3540;53.242;10.408;2023-11-21T13:17:45;6.50;99.90
7000;DHT22;3540;53.242;10.408;2023-11-21T13:20:12;6.50;99.90
7000;DHT22;3540;53.242;10.408;2023-11-21T13:22:53;6.50;99.90
7000;DHT22;3540;53.242;10.408;2023-11-21T13:25:21;6.50;99.90
7000;DHT22;3540;53.242;10.408;2023-11-21T13:27:46;6.40;99.90
7000;DHT22;3540;53.242;10.408;2023-11-21T13:30:14;6.50;99.90
7000;DHT22;3540;53.242;10.408;2023-11-21T13:32:44;6.50;99.90
7000;DHT22;3540;53.242;10.408;2023-11-21T13:35:15;6.40;99.90
7000;DHT22;3540;53.242;10.408;2023-11-21T13:37:50;6.50;99.90
7000;DHT22;3540;53.242;10.408;2023-11-21T13:40:20;6.50;99.90
7000;DHT22;3540;53.242;10.408;2023-11-21T13:42:49;6.50;99.90
7000;DHT22;3540;53.242;10.408;2023-11-21T13:45:14;6.50;99.90
7000;DHT22;3540;53.242;10.408;2023-11-21T13:47:42;6.50;99.90
7000;DHT22;3540;53.242;10.408;2023-11-21T13:50:08;6.50;99.90
7000;DHT22;3540;53.242;10.408;2023-11-21T13:52:43;6.50;99.90
7000;DHT22;3540;53.242;10.408;2023-11-21T13:55:10;6.50;99.90
7000;DHT22;3540;53.242;10.408;2023-11-21T13:57:41;6.50;99.90
7000;DHT22;3540;53.242;10.408;2023-11-21T14:00:11;6.50;99.90
7000;DHT22;3540;53.242;10.408;2023-11-21T14:02:56;6.40;99.90
7000;DHT22;3540;53.242;10.408;2023-11-21T14:05:28;6.50;99.90
7000;DHT22;3540;53.242;10.408;2023-11-21T14:07:58;6.50;99.90
7000;DHT22;3540;53.242;10.408;2023-11-21T14:10:33;6.50;99.90
7000;DHT22;3540;53.242;10.408;2023-11-21T14:13:06;6.40;99.90
7000;DHT22;3540;53.242;10.408;2023-11-21T14:15:32;6.40;99.90
7000;DHT22;3540;53.242;10.408;2023-11-21T14:18:02;6.40;99.90
7000;DHT22;3540;53.242;10.408;2023-11-21T14:20:33;6.30;99.90
7000;DHT22;3540;53.242;10.408;2023-11-21T14:22:59;6.40;99.90
7000;DHT22;3540;53.242;10.408;2023-11-21T14:25:24;6.30;99.90
7000;DHT22;3540;53.242;10.408;2023-11-21T14:27:50;6.30;99.90
7000;DHT22;3540;53.242;10.408;2023-11-21T14:30:16;6.30;99.90
7000;DHT22;3540;53.242;10.408;2023-11-21T14:32:44;6.30;99.90
7000;DHT22;3540;53.242;10.408;2023-11-21T14:35:10;6.30;99.90
7000;DHT22;3540;53.242;10.408;2023-11-21T14:37:36;6.30;99.90
7000;DHT22;3540;53.242;10.408;2023-11-21T14:40:01;6.30;99.90
7000;DHT22;3540;53.242;10.408;2023-11-21T14:42:30;6.30;99.90
7000;DHT22;3540;53.242;10.408;2023-11-21T14:44:55;6.30;99.90
7000;DHT22;3540;53.242;10.408;2023-11-21T14:47:25;6.30;99.90
7000;DHT22;3540;53.242;10.408;2023-11-21T14:49:52;6.30;99.90
7000;DHT22;3540;53.242;10.408;2023-11-21T14:52:19;6.20;99.90
7000;DHT22;3540;53.242;10.408;2023-11-21T14:54:58;6.30;99.90
7000;DHT22;3540;53.242;10.408;2023-11-21T14:57:42;6.30;99.90
7000;DHT22;3540;53.242;10.408;2023-11-21T15:00:19;6.30;99.90
7000;DHT22;3540;53.242;10.408;2023-11-21T15:03:00;6.20;99.90
7000;DHT22;3540;53.242;10.408;2023-11-21T15:05:26;6.20;99.90
7000;DHT22;3540;53.242;10.408;2023-11-21T15:07:53;6.30;99.90
7000;DHT22;3540;53.242;10.408;2023-11-21T15:10:22;6.20;99.90
7000;DHT22;3540;53.242;10.408;2023-11-21T15:12:57;6.30;99.90
7000;DHT22;3540;53.242;10.408;2023-11-21T15:15:23;6.20;99.90
7000;DHT22;3540;53.242;10.408;2023-11-21T15:17:48;6.20;99.90
7000;DHT22;3540;53.242;10.408;2023-11-21T15:20:14;6.20;99.90
7000;DHT22;3540;53.242;10.408;2023-11-21T15:22:46;6.20;99.90
7000;DHT22;3540;53.242;10.408;2023-11-21T15:25:12;6.20;99.90
7000;DHT22;3540;53.242;10.408;2023-11-21T15:27:39;6.20;99.90
7000;DHT22;3540;53.242;10.408;2023-11-21T15:30:06;6.20;99.90
7000;DHT22;3540;53.242;10.408;2023-11-21T15:32:32;6.20;99.90
7000;DHT22;3540;53.242;10.408;2023-11-21T15:34:58;6.20;99.90
7000;DHT22;3540;53.242;10.408;2023-11-21T15:37:23;6.20;99.90
7000;DHT22;3540;53.242;10.408;2023-11-21T15:39:51;6.10;99.90
7000;DHT22;3540;53.242;10.408;2023-11-21T15:42:17;6.10;99.90
7000;DHT22;3540;53.242;10.408;2023-11-21T15:44:43;6.10;99.90
7000;DHT22;3540;53.242;10.408;2023-11-21T15:47:08;6.10;99.90
7000;DHT22;3540;53.242;10.408;2023-11-21T15:49:34;6.10;99.90
7000;DHT22;3540;53.242;10.408;2023-11-21T15:52:02;6.00;99.90
7000;DHT22;3540;53.242;10.408;2023-11-21T15:54:28;6.00;99.90
7000;DHT22;3540;53.242;10.408;2023-11-21T15:56:55;6.00;99.90
7000;DHT22;3540;53.242;10.408;2023-11-21T15:59:23;5.90;99.90
7000;DHT22;3540;53.242;10.408;2023-11-21T16:01:52;5.90;99.90
7000;DHT22;3540;53.242;10.408;2023-11-21T16:04:18;5.80;99.90
7000;DHT22;3540;53.242;10.408;2023-11-21T16:06:47;5.80;99.90
7000;DHT22;3540;53.242;10.408;2023-11-21T16:09:14;5.70;99.90
7000;DHT22;3540;53.242;10.408;2023-11-21T16:12:12;5.80;99.90